createdAt,value
2018-03-07T00:00:44.223Z,55.53
2018-03-07T00:03:16.734Z,55.76
2018-03-07T00:05:49.224Z,55.69
2018-03-07T00:08:21.742Z,55.53
2018-03-07T00:10:54.256Z,55.75
2018-03-07T00:13:26.766Z,55.60
2018-03-07T00:15:59.252Z,55.69
2018-03-07T00:18:31.768Z,55.75
2018-03-07T00:21:04.263Z,55.67
2018-03-07T00:23:36.810Z,55.54
2018-03-07T00:26:09.305Z,55.62
2018-03-07T00:28:41.823Z,55.83
2018-03-07T00:31:14.404Z,55.94
2018-03-07T00:33:46.918Z,55.94
2018-03-07T00:36:19.411Z,56.23
2018-03-07T00:38:51.927Z,56.15
2018-03-07T00:41:24.423Z,56.11
2018-03-07T00:43:56.937Z,55.87
2018-03-07T00:46:29.433Z,55.96
2018-03-07T00:49:01.946Z,55.75
2018-03-07T00:51:34.468Z,55.91
2018-03-07T00:54:06.984Z,55.92
2018-03-07T00:56:39.478Z,56.10
2018-03-07T00:59:11.992Z,56.07
2018-03-07T01:01:44.481Z,56.22
2018-03-07T01:04:16.997Z,56.36
2018-03-07T01:06:49.488Z,56.42
2018-03-07T01:09:21.997Z,56.33
2018-03-07T01:11:54.484Z,56.27
2018-03-07T01:14:26.998Z,56.11
2018-03-07T01:16:59.494Z,56.06
2018-03-07T01:19:32.016Z,56.16
2018-03-07T01:22:04.516Z,56.32
2018-03-07T01:24:37.054Z,56.49
2018-03-07T01:27:09.586Z,56.63
2018-03-07T01:29:42.082Z,56.67
2018-03-07T01:32:14.605Z,56.39
2018-03-07T01:34:47.097Z,56.39
2018-03-07T01:37:19.611Z,56.22
2018-03-07T01:39:52.110Z,56.40
2018-03-07T01:42:25.469Z,56.53
2018-03-07T01:44:57.969Z,56.66
2018-03-07T01:47:30.487Z,56.40
2018-03-07T01:50:02.985Z,56.32
2018-03-07T01:52:35.497Z,56.31
2018-03-07T01:55:07.989Z,56.22
2018-03-07T01:57:40.510Z,56.18
2018-03-07T02:00:13.001Z,56.03
2018-03-07T02:02:45.513Z,56.24
2018-03-07T02:05:18.021Z,56.18
2018-03-07T02:07:50.539Z,56.30
2018-03-07T02:13:00.976Z,56.67
2018-03-07T02:15:33.466Z,56.70
2018-03-07T02:18:05.998Z,56.75
2018-03-07T02:20:38.495Z,56.75
2018-03-07T02:23:11.014Z,56.77
2018-03-07T02:25:43.509Z,56.62
2018-03-07T02:28:16.025Z,56.44
2018-03-07T02:30:48.518Z,56.31
2018-03-07T02:33:21.039Z,56.27
2018-03-07T02:35:53.535Z,56.31
2018-03-07T02:38:26.056Z,56.40
2018-03-07T02:40:58.553Z,56.46
2018-03-07T02:43:31.065Z,56.63
2018-03-07T02:46:03.570Z,56.83
2018-03-07T02:48:36.089Z,56.99
2018-03-07T02:51:08.587Z,57.12
2018-03-07T02:53:41.152Z,57.13
2018-03-07T02:56:13.617Z,57.39
2018-03-07T02:58:46.133Z,57.70
2018-03-07T03:01:18.633Z,57.67
2018-03-07T03:03:51.147Z,58.00
2018-03-07T03:06:23.640Z,58.16
2018-03-07T03:08:56.157Z,58.10
2018-03-07T03:11:28.664Z,58.15
2018-03-07T03:14:01.187Z,58.35
2018-03-07T03:16:33.676Z,58.42
2018-03-07T03:19:06.196Z,58.58
2018-03-07T03:21:38.681Z,58.86
2018-03-07T03:24:11.206Z,59.04
2018-03-07T03:26:43.702Z,59.18
2018-03-07T03:29:16.231Z,59.39
2018-03-07T03:31:48.727Z,59.35
2018-03-07T03:34:21.241Z,59.30
2018-03-07T03:36:53.746Z,59.38
2018-03-07T03:39:26.269Z,59.17
2018-03-07T03:41:58.769Z,59.25
2018-03-07T03:44:31.290Z,59.14
2018-03-07T03:47:03.786Z,59.10
2018-03-07T03:49:36.304Z,59.03
2018-03-07T03:52:08.798Z,58.82
2018-03-07T03:54:41.312Z,58.75
2018-03-07T03:57:13.815Z,58.95
2018-03-07T03:59:46.326Z,58.80
2018-03-07T04:02:18.818Z,58.65
2018-03-07T04:04:51.400Z,58.92
2018-03-07T04:07:23.893Z,59.27
2018-03-07T04:09:56.413Z,59.24
2018-03-07T04:12:30.172Z,59.42
2018-03-07T04:15:02.692Z,59.18
2018-03-07T04:17:35.198Z,59.35
2018-03-07T04:20:07.718Z,59.35
2018-03-07T04:22:40.234Z,59.21
2018-03-07T04:25:12.758Z,59.07
2018-03-07T04:27:45.261Z,59.33
2018-03-07T04:30:17.773Z,59.22
2018-03-07T04:32:50.270Z,59.50
2018-03-07T04:35:22.789Z,59.35
2018-03-07T04:37:55.294Z,59.45
2018-03-07T04:40:27.813Z,59.51
2018-03-07T04:43:00.339Z,59.48
2018-03-07T04:45:32.870Z,59.46
2018-03-07T04:48:05.378Z,59.33
2018-03-07T04:50:37.904Z,59.44
2018-03-07T04:53:10.405Z,59.34
2018-03-07T04:55:42.922Z,59.12
2018-03-07T04:58:15.437Z,58.92
2018-03-07T05:00:47.959Z,58.91
2018-03-07T05:03:20.479Z,58.80
2018-03-07T05:05:52.979Z,58.96
2018-03-07T05:08:25.493Z,59.42
2018-03-07T05:10:58.005Z,59.72
2018-03-07T05:13:30.557Z,59.71
2018-03-07T05:16:03.063Z,59.30
2018-03-07T05:18:35.588Z,59.10
2018-03-07T05:21:08.100Z,59.42
2018-03-07T05:23:40.630Z,59.48
2018-03-07T05:26:13.126Z,59.42
2018-03-07T05:28:45.647Z,59.34
2018-03-07T05:31:18.166Z,59.64
2018-03-07T05:33:50.690Z,59.69
2018-03-07T05:36:23.185Z,59.30
2018-03-07T05:38:55.697Z,59.12
2018-03-07T05:41:28.215Z,59.07
2018-03-07T05:44:00.746Z,59.17
2018-03-07T05:46:33.233Z,59.10
2018-03-07T05:49:05.742Z,59.21
2018-03-07T05:51:38.239Z,59.24
2018-03-07T05:54:10.769Z,59.02
2018-03-07T05:56:43.267Z,59.40
2018-03-07T05:59:15.782Z,59.31
2018-03-07T06:01:48.274Z,59.16
2018-03-07T06:04:20.785Z,59.27
2018-03-07T06:06:53.277Z,59.30
2018-03-07T06:09:25.785Z,59.61
2018-03-07T06:11:58.285Z,59.69
2018-03-07T06:14:30.802Z,59.71
2018-03-07T06:17:03.298Z,59.76
2018-03-07T06:19:35.833Z,59.92
2018-03-07T06:22:08.326Z,59.81
2018-03-07T06:24:40.845Z,59.69
2018-03-07T06:27:13.338Z,59.68
2018-03-07T06:29:45.855Z,59.73
2018-03-07T06:32:18.349Z,59.71
2018-03-07T06:34:50.861Z,59.63
2018-03-07T06:37:23.357Z,59.72
2018-03-07T06:39:55.892Z,59.83
2018-03-07T06:42:28.398Z,59.88
2018-03-07T06:45:00.909Z,59.98
2018-03-07T06:47:33.411Z,60.00
2018-03-07T06:50:05.934Z,59.93
2018-03-07T06:52:38.430Z,59.96
2018-03-07T06:55:10.954Z,60.03
2018-03-07T06:57:43.455Z,60.16
2018-03-07T07:00:15.977Z,60.15
2018-03-07T07:02:48.470Z,60.03
2018-03-07T07:05:20.981Z,59.86
2018-03-07T07:07:53.536Z,59.69
2018-03-07T07:10:26.062Z,59.64
2018-03-07T07:12:58.562Z,59.71
2018-03-07T07:15:31.092Z,59.97
2018-03-07T07:18:03.653Z,60.14
2018-03-07T07:20:36.143Z,60.04
2018-03-07T07:23:08.641Z,59.93
2018-03-07T07:25:41.165Z,59.83
2018-03-07T07:28:13.689Z,59.77
2018-03-07T07:30:46.220Z,59.58
2018-03-07T07:33:18.724Z,59.35
2018-03-07T07:35:51.257Z,59.15
2018-03-07T07:38:23.773Z,59.19
2018-03-07T07:40:56.317Z,59.10
2018-03-07T07:43:28.871Z,59.18
2018-03-07T07:46:01.378Z,59.07
2018-03-07T07:48:33.885Z,59.04
2018-03-07T07:51:06.412Z,58.90
2018-03-07T07:53:38.922Z,58.74
2018-03-07T07:56:11.441Z,58.92
2018-03-07T07:58:43.968Z,59.14
2018-03-07T08:01:16.502Z,59.30
2018-03-07T08:03:49.011Z,59.13
2018-03-07T08:06:21.538Z,58.94
2018-03-07T08:08:54.049Z,59.19
2018-03-07T08:11:26.582Z,59.23
2018-03-07T08:13:59.094Z,59.25
2018-03-07T08:16:31.613Z,59.42
2018-03-07T08:19:04.119Z,59.37
2018-03-07T08:21:36.652Z,59.76
2018-03-07T08:24:09.172Z,60.15
2018-03-07T08:26:41.691Z,60.19
2018-03-07T08:29:14.241Z,60.12
2018-03-07T08:31:46.761Z,59.91
2018-03-07T08:34:19.274Z,59.80
2018-03-07T08:36:51.799Z,59.94
2018-03-07T08:39:24.308Z,59.96
2018-03-07T08:41:56.839Z,59.91
2018-03-07T08:44:29.379Z,60.10
2018-03-07T08:47:01.881Z,59.89
2018-03-07T08:49:34.419Z,60.29
2018-03-07T08:52:06.928Z,60.43
2018-03-07T08:54:39.448Z,60.62
2018-03-07T08:57:11.977Z,60.75
2018-03-07T08:59:44.491Z,60.79
2018-03-07T09:02:17.002Z,60.60
2018-03-07T09:04:49.532Z,60.39
2018-03-07T09:07:22.040Z,60.25
2018-03-07T09:09:54.578Z,60.34
2018-03-07T09:12:27.077Z,60.41
2018-03-07T09:14:59.666Z,60.45
2018-03-07T09:17:32.200Z,60.45
2018-03-07T09:20:04.752Z,60.41
2018-03-07T09:22:37.283Z,60.42
2018-03-07T09:25:09.798Z,60.65
2018-03-07T09:27:42.371Z,60.71
2018-03-07T09:30:14.893Z,60.65
2018-03-07T09:32:47.411Z,61.22
2018-03-07T09:35:19.939Z,61.76
2018-03-07T09:37:52.441Z,61.77
2018-03-07T09:40:24.964Z,61.66
2018-03-07T09:42:57.463Z,61.80
2018-03-07T09:45:29.979Z,61.84
2018-03-07T09:48:02.496Z,62.03
2018-03-07T09:50:35.084Z,62.17
2018-03-07T09:53:07.578Z,62.25
2018-03-07T09:55:40.101Z,62.33
2018-03-07T09:58:12.610Z,62.48
2018-03-07T10:00:45.133Z,62.16
2018-03-07T10:03:17.630Z,62.15
2018-03-07T10:05:50.159Z,62.00
2018-03-07T10:08:22.654Z,62.28
2018-03-07T10:10:55.181Z,62.24
2018-03-07T10:13:27.682Z,62.58
2018-03-07T10:16:00.208Z,62.50
2018-03-07T10:18:32.706Z,62.11
2018-03-07T10:21:05.242Z,62.43
2018-03-07T10:23:37.745Z,62.45
2018-03-07T10:26:10.267Z,62.33
2018-03-07T10:28:42.793Z,62.52
2018-03-07T10:31:15.313Z,62.64
2018-03-07T10:33:47.815Z,62.76
2018-03-07T10:36:20.352Z,62.93
2018-03-07T10:38:52.857Z,63.19
2018-03-07T10:41:25.379Z,63.24
2018-03-07T10:43:57.881Z,63.57
2018-03-07T10:46:30.404Z,63.36
2018-03-07T10:49:02.906Z,63.58
2018-03-07T10:51:35.446Z,63.62
2018-03-07T10:54:07.952Z,63.98
2018-03-07T10:56:40.466Z,64.37
2018-03-07T10:59:12.962Z,64.44
2018-03-07T11:01:45.491Z,64.64
2018-03-07T11:04:17.996Z,64.70
2018-03-07T11:06:50.534Z,64.54
2018-03-07T11:09:23.030Z,64.31
2018-03-07T11:11:55.552Z,64.40
2018-03-07T11:14:28.055Z,64.35
2018-03-07T11:17:00.568Z,64.25
2018-03-07T11:19:33.069Z,64.08
2018-03-07T11:22:05.602Z,63.83
2018-03-07T11:24:38.097Z,64.03
2018-03-07T11:27:10.621Z,63.96
2018-03-07T11:29:43.122Z,64.02
2018-03-07T11:32:15.639Z,64.53
2018-03-07T11:34:48.145Z,64.31
2018-03-07T11:37:20.664Z,64.27
2018-03-07T11:39:53.162Z,64.11
2018-03-07T11:42:25.684Z,64.19
2018-03-07T11:44:58.242Z,63.95
2018-03-07T11:47:30.729Z,63.54
2018-03-07T11:50:03.226Z,63.92
2018-03-07T11:52:35.745Z,64.20
2018-03-07T11:55:08.245Z,64.16
2018-03-07T11:57:40.764Z,64.41
2018-03-07T12:00:13.269Z,64.40
2018-03-07T12:02:45.801Z,64.51
2018-03-07T12:05:18.359Z,64.65
2018-03-07T12:07:50.898Z,64.37
2018-03-07T12:10:23.403Z,64.65
2018-03-07T12:12:55.928Z,64.71
2018-03-07T12:15:28.458Z,64.65
2018-03-07T12:18:00.990Z,64.59
2018-03-07T12:20:33.497Z,64.44
2018-03-07T12:23:06.025Z,64.39
2018-03-07T12:25:38.526Z,64.46
2018-03-07T12:28:11.069Z,64.41
2018-03-07T12:30:43.582Z,64.50
2018-03-07T12:33:16.099Z,64.74
2018-03-07T12:35:48.606Z,64.86
2018-03-07T12:38:21.133Z,64.90
2018-03-07T12:40:53.645Z,65.24
2018-03-07T12:43:26.166Z,65.13
2018-03-07T12:45:58.658Z,65.19
2018-03-07T12:48:31.177Z,65.30
2018-03-07T12:51:03.713Z,65.22
2018-03-07T12:53:36.210Z,65.30
2018-03-07T12:56:08.719Z,65.34
2018-03-07T12:58:41.243Z,64.80
2018-03-07T13:01:13.741Z,64.86
2018-03-07T13:03:46.267Z,64.69
2018-03-07T13:06:18.770Z,64.79
2018-03-07T13:08:51.289Z,64.64
2018-03-07T13:11:23.788Z,64.77
2018-03-07T13:13:56.299Z,64.82
2018-03-07T13:16:28.839Z,64.59
2018-03-07T13:19:01.346Z,64.79
2018-03-07T13:21:33.890Z,64.82
2018-03-07T13:24:06.426Z,64.65
2018-03-07T13:26:38.954Z,64.69
2018-03-07T13:29:11.451Z,64.83
2018-03-07T13:31:43.966Z,64.90
2018-03-07T13:34:16.464Z,65.01
2018-03-07T13:36:48.986Z,65.11
2018-03-07T13:39:21.494Z,64.96
2018-03-07T13:41:54.028Z,65.17
2018-03-07T13:44:26.543Z,65.05
2018-03-07T13:46:59.065Z,64.96
2018-03-07T13:49:31.568Z,64.89
2018-03-07T13:52:04.093Z,64.86
2018-03-07T13:54:36.631Z,64.96
2018-03-07T13:57:09.149Z,64.88
2018-03-07T13:59:41.654Z,64.85
2018-03-07T14:02:14.180Z,64.89
2018-03-07T14:04:46.688Z,64.56
2018-03-07T14:07:19.213Z,64.55
2018-03-07T14:09:51.724Z,64.44
2018-03-07T14:12:24.732Z,64.38
2018-03-07T14:14:57.233Z,64.15
2018-03-07T14:17:29.755Z,64.16
2018-03-07T14:20:02.278Z,64.25
2018-03-07T14:22:34.850Z,63.85
2018-03-07T14:25:07.386Z,64.47
2018-03-07T14:30:17.602Z,64.42
2018-03-07T14:32:50.131Z,64.40
2018-03-07T14:35:22.648Z,64.40
2018-03-07T14:37:55.225Z,64.11
2018-03-07T14:40:27.737Z,64.29
2018-03-07T14:43:00.271Z,64.49
2018-03-07T14:45:32.778Z,64.59
2018-03-07T14:48:05.354Z,64.54
2018-03-07T14:50:37.866Z,64.53
2018-03-07T14:53:10.466Z,64.50
2018-03-07T14:55:43.012Z,64.41
2018-03-07T14:58:15.589Z,64.62
2018-03-07T15:00:48.112Z,64.58
2018-03-07T15:03:20.658Z,64.37
2018-03-07T15:05:53.163Z,64.05
2018-03-07T15:08:25.689Z,64.01
2018-03-07T15:10:58.195Z,63.75
2018-03-07T15:13:30.723Z,64.05
2018-03-07T15:16:03.255Z,63.87
2018-03-07T15:18:35.824Z,63.67
2018-03-07T15:21:08.325Z,63.57
2018-03-07T15:23:40.852Z,63.56
2018-03-07T15:26:13.374Z,63.72
2018-03-07T15:28:45.917Z,63.67
2018-03-07T15:31:18.418Z,63.61
2018-03-07T15:33:50.942Z,63.72
2018-03-07T15:36:23.457Z,63.68
2018-03-07T15:38:56.004Z,63.54
2018-03-07T15:41:28.507Z,63.53
2018-03-07T15:44:01.029Z,63.51
2018-03-07T15:46:33.553Z,63.35
2018-03-07T15:49:06.074Z,63.35
2018-03-07T15:51:38.590Z,63.54
2018-03-07T15:54:11.114Z,63.48
2018-03-07T15:56:43.624Z,63.60
2018-03-07T15:59:16.149Z,63.81
2018-03-07T16:01:48.650Z,64.08
2018-03-07T16:04:21.199Z,64.05
2018-03-07T16:06:53.747Z,64.20
2018-03-07T16:09:26.288Z,64.52
2018-03-07T16:11:58.800Z,64.33
2018-03-07T16:14:31.349Z,64.91
2018-03-07T16:17:03.934Z,64.78
2018-03-07T16:19:36.399Z,64.45
2018-03-07T16:22:08.903Z,64.12
2018-03-07T16:24:41.518Z,64.28
2018-03-07T16:27:14.030Z,64.40
2018-03-07T16:29:46.550Z,64.49
2018-03-07T16:32:19.061Z,64.64
2018-03-07T16:34:51.586Z,64.74
2018-03-07T16:37:24.093Z,64.92
2018-03-07T16:39:56.618Z,64.77
2018-03-07T16:42:29.133Z,64.81
2018-03-07T16:45:01.663Z,64.67
2018-03-07T16:47:34.185Z,64.46
2018-03-07T16:50:06.721Z,64.52
2018-03-07T16:52:39.234Z,64.65
2018-03-07T16:55:11.770Z,64.99
2018-03-07T16:57:44.282Z,65.31
2018-03-07T17:00:16.818Z,65.35
2018-03-07T17:02:49.326Z,65.11
2018-03-07T17:05:21.857Z,64.85
2018-03-07T17:07:54.405Z,64.68
2018-03-07T17:10:26.923Z,64.51
2018-03-07T17:12:59.440Z,64.33
2018-03-07T17:15:31.946Z,64.29
2018-03-07T17:18:04.461Z,64.24
2018-03-07T17:20:36.974Z,64.35
2018-03-07T17:23:09.513Z,64.59
2018-03-07T17:25:42.021Z,64.89
2018-03-07T17:28:14.539Z,64.88
2018-03-07T17:30:47.067Z,64.80
2018-03-07T17:33:19.592Z,64.65
2018-03-07T17:35:52.091Z,64.79
2018-03-07T17:38:24.609Z,64.73
2018-03-07T17:40:57.105Z,65.16
2018-03-07T17:43:29.634Z,65.31
2018-03-07T17:46:02.135Z,64.95
2018-03-07T17:48:34.674Z,64.95
2018-03-07T17:51:07.195Z,64.93
2018-03-07T17:53:39.727Z,65.26
2018-03-07T17:56:12.250Z,65.33
2018-03-07T17:58:44.853Z,65.26
2018-03-07T18:01:17.408Z,65.51
2018-03-07T18:03:49.933Z,65.54
2018-03-07T18:06:22.647Z,65.60
2018-03-07T18:08:55.189Z,65.96
2018-03-07T18:11:28.217Z,65.84
2018-03-07T18:14:00.766Z,65.79
2018-03-07T18:16:33.323Z,65.90
2018-03-07T18:19:05.841Z,66.09
2018-03-07T18:21:38.377Z,65.98
2018-03-07T18:24:10.904Z,65.90
2018-03-07T18:26:43.410Z,65.80
2018-03-07T18:29:15.931Z,65.71
2018-03-07T18:31:48.442Z,65.59
2018-03-07T18:34:20.969Z,65.66
2018-03-07T18:36:53.530Z,65.81
2018-03-07T18:39:26.047Z,65.75
2018-03-07T18:41:58.575Z,65.67
2018-03-07T18:44:31.093Z,65.94
2018-03-07T18:47:03.747Z,65.84
2018-03-07T18:49:36.265Z,65.67
2018-03-07T18:52:08.836Z,65.63
2018-03-07T18:54:41.359Z,65.59
2018-03-07T18:57:13.878Z,65.61
2018-03-07T18:59:46.401Z,65.68
2018-03-07T19:02:18.902Z,65.72
2018-03-07T19:04:51.449Z,65.81
2018-03-07T19:07:24.781Z,65.88
2018-03-07T19:09:57.309Z,65.79
2018-03-07T19:12:29.814Z,66.09
2018-03-07T19:15:02.337Z,66.44
2018-03-07T19:17:34.914Z,66.56
2018-03-07T19:20:07.407Z,66.50
2018-03-07T19:22:39.921Z,66.26
2018-03-07T19:25:12.443Z,66.25
2018-03-07T19:27:44.974Z,66.73
2018-03-07T19:30:18.059Z,66.80
2018-03-07T19:32:50.906Z,66.62
2018-03-07T19:35:23.438Z,66.86
2018-03-07T19:37:55.964Z,66.78
2018-03-07T19:40:28.482Z,66.73
2018-03-07T19:43:00.995Z,66.79
2018-03-07T19:45:34.053Z,66.85
2018-03-07T19:48:06.568Z,66.99
2018-03-07T19:50:39.090Z,67.15
2018-03-07T19:53:11.626Z,67.15
2018-03-07T19:55:44.142Z,67.03
2018-03-07T19:58:16.638Z,66.89
2018-03-07T20:00:49.162Z,67.05
2018-03-07T20:03:21.677Z,66.93
2018-03-07T20:05:54.257Z,67.91
2018-03-07T20:08:26.798Z,67.79
2018-03-07T20:10:59.337Z,67.58
2018-03-07T20:13:31.848Z,67.46
2018-03-07T20:16:04.492Z,67.22
2018-03-07T20:18:36.994Z,67.11
2018-03-07T20:21:09.505Z,66.76
2018-03-07T20:23:42.042Z,66.79
2018-03-07T20:26:14.588Z,66.90
2018-03-07T20:28:47.095Z,66.96
2018-03-07T20:31:19.635Z,66.69
2018-03-07T20:33:52.195Z,66.58
2018-03-07T20:36:24.714Z,66.82
2018-03-07T20:38:57.235Z,66.92
2018-03-07T20:41:29.805Z,67.14
2018-03-07T20:44:02.307Z,68.16
2018-03-07T20:46:34.834Z,70.33
2018-03-07T20:49:07.354Z,69.35
2018-03-07T20:51:39.871Z,69.57
2018-03-07T20:54:12.374Z,67.44
2018-03-07T20:56:44.897Z,66.62
2018-03-07T20:59:17.404Z,66.16
2018-03-07T21:01:49.943Z,66.00
2018-03-07T21:04:22.502Z,65.75
2018-03-07T21:06:54.977Z,65.60
2018-03-07T21:09:27.484Z,65.53
2018-03-07T21:12:00.003Z,65.63
2018-03-07T21:14:32.511Z,65.45
2018-03-07T21:17:05.035Z,65.19
2018-03-07T21:19:37.538Z,65.29
2018-03-07T21:22:10.098Z,65.29
2018-03-07T21:24:42.608Z,65.28
2018-03-07T21:27:15.126Z,65.30
2018-03-07T21:29:47.646Z,65.23
2018-03-07T21:32:20.227Z,64.97
2018-03-07T21:34:52.742Z,64.79
2018-03-07T21:37:25.244Z,64.61
2018-03-07T21:39:57.756Z,64.52
2018-03-07T21:42:30.264Z,64.64
2018-03-07T21:45:02.798Z,64.60
2018-03-07T21:47:35.341Z,64.74
2018-03-07T21:50:07.843Z,64.75
2018-03-07T21:52:40.343Z,64.66
2018-03-07T21:55:12.857Z,64.66
2018-03-07T21:57:45.353Z,64.60
2018-03-07T22:00:17.921Z,64.43
2018-03-07T22:02:50.431Z,64.37
2018-03-07T22:05:22.958Z,64.34
2018-03-07T22:07:55.453Z,64.13
2018-03-07T22:10:27.987Z,65.40
2018-03-07T22:13:00.503Z,65.41
2018-03-07T22:15:33.066Z,65.38
2018-03-07T22:18:05.568Z,65.15
2018-03-07T22:20:38.084Z,64.93
2018-03-07T22:23:10.587Z,64.55
2018-03-07T22:25:43.109Z,65.38
2018-03-07T22:28:15.605Z,65.38
2018-03-07T22:30:48.134Z,65.86
2018-03-07T22:33:20.655Z,65.76
2018-03-07T22:35:53.190Z,65.52
2018-03-07T22:38:25.717Z,65.38
2018-03-07T22:40:58.238Z,65.29
2018-03-07T22:43:30.739Z,65.18
2018-03-07T22:46:03.261Z,64.91
2018-03-07T22:48:35.785Z,64.84
2018-03-07T22:51:08.313Z,64.83
2018-03-07T22:53:41.006Z,66.04
2018-03-07T22:56:13.633Z,67.51
2018-03-07T22:58:46.137Z,66.94
2018-03-07T23:01:18.649Z,66.56
2018-03-07T23:03:51.156Z,66.16
2018-03-07T23:06:23.688Z,65.86
2018-03-07T23:08:56.186Z,65.73
2018-03-07T23:11:28.731Z,65.64
2018-03-07T23:14:01.239Z,65.64
2018-03-07T23:16:33.767Z,65.69
2018-03-07T23:19:06.287Z,65.58
2018-03-07T23:21:38.823Z,65.66
2018-03-07T23:24:11.329Z,65.63
2018-03-07T23:26:43.878Z,65.56
2018-03-07T23:29:16.413Z,65.52
2018-03-07T23:31:48.921Z,65.58
2018-03-07T23:34:21.436Z,65.67
2018-03-07T23:36:53.960Z,65.75
2018-03-07T23:39:26.459Z,65.54
2018-03-07T23:41:58.977Z,65.54
2018-03-07T23:44:31.482Z,65.59
2018-03-07T23:47:04.019Z,65.55
2018-03-07T23:49:36.515Z,65.52
2018-03-07T23:52:09.031Z,65.46
2018-03-07T23:54:41.534Z,65.26
2018-03-07T23:57:14.067Z,65.33
2018-03-07T23:59:46.564Z,65.50
